createdAt,value
2018-02-10T00:02:05.721Z,69.77
2018-02-10T00:04:33.259Z,69.75
2018-02-10T00:07:00.792Z,69.59
2018-02-10T00:09:28.347Z,69.63
2018-02-10T00:11:55.871Z,69.54
2018-02-10T00:14:23.402Z,69.60
2018-02-10T00:16:50.976Z,69.81
2018-02-10T00:19:18.509Z,69.57
2018-02-10T00:21:46.059Z,69.64
2018-02-10T00:24:13.606Z,69.53
2018-02-10T00:26:41.131Z,69.74
2018-02-10T00:29:08.896Z,69.38
2018-02-10T00:31:36.443Z,69.66
2018-02-10T00:34:04.116Z,69.65
2018-02-10T00:36:33.851Z,69.67
2018-02-10T00:39:01.430Z,69.58
2018-02-10T00:41:29.264Z,69.70
2018-02-10T00:43:56.779Z,69.71
2018-02-10T00:46:24.356Z,69.72
2018-02-10T00:48:51.890Z,69.51
2018-02-10T00:51:19.401Z,69.75
2018-02-10T00:53:47.280Z,69.51
2018-02-10T00:56:14.809Z,69.75
2018-02-10T00:58:42.597Z,69.67
2018-02-10T01:01:10.161Z,69.79
2018-02-10T01:03:37.699Z,69.88
2018-02-10T01:06:05.262Z,69.65
2018-02-10T01:08:32.800Z,69.70
2018-02-10T01:11:00.318Z,69.83
2018-02-10T01:13:27.854Z,69.62
2018-02-10T01:15:55.583Z,69.68
2018-02-10T01:18:23.105Z,69.68
2018-02-10T01:20:50.617Z,69.72
2018-02-10T01:23:18.180Z,69.56
2018-02-10T01:25:45.706Z,69.49
2018-02-10T01:28:13.240Z,69.90
2018-02-10T01:30:40.789Z,69.75
2018-02-10T01:33:08.315Z,69.91
2018-02-10T01:35:35.817Z,69.92
2018-02-10T01:38:03.471Z,70.04
2018-02-10T01:40:31.309Z,70.03
2018-02-10T01:42:58.843Z,69.98
2018-02-10T01:45:26.399Z,70.00
2018-02-10T01:47:53.927Z,69.88
2018-02-10T01:50:22.196Z,69.90
2018-02-10T01:52:49.739Z,70.24
2018-02-10T01:55:17.252Z,70.15
2018-02-10T01:57:44.819Z,70.13
2018-02-10T02:00:12.413Z,70.02
2018-02-10T02:02:39.935Z,70.15
2018-02-10T02:05:07.477Z,70.19
2018-02-10T02:07:35.013Z,70.13
2018-02-10T02:10:02.530Z,70.16
2018-02-10T02:12:30.065Z,70.17
2018-02-10T02:14:57.605Z,70.09
2018-02-10T02:17:25.126Z,70.22
2018-02-10T02:19:52.634Z,70.22
2018-02-10T02:22:20.199Z,70.17
2018-02-10T02:24:47.733Z,70.24
2018-02-10T02:27:15.268Z,70.31
2018-02-10T02:29:43.116Z,70.17
2018-02-10T02:32:10.653Z,70.15
2018-02-10T02:34:38.191Z,70.23
2018-02-10T02:37:05.705Z,70.15
2018-02-10T02:39:33.292Z,70.14
2018-02-10T02:42:00.819Z,70.30
2018-02-10T02:44:28.687Z,70.34
2018-02-10T02:46:56.221Z,70.22
2018-02-10T02:49:23.752Z,70.16
2018-02-10T02:51:51.274Z,70.23
2018-02-10T02:54:18.813Z,70.30
2018-02-10T02:56:46.337Z,70.31
2018-02-10T02:59:14.135Z,70.30
2018-02-10T03:01:41.724Z,70.07
2018-02-10T03:04:09.253Z,70.36
2018-02-10T03:06:36.797Z,70.39
2018-02-10T03:09:04.341Z,70.21
2018-02-10T03:11:31.866Z,70.27
2018-02-10T03:13:59.419Z,70.08
2018-02-10T03:16:26.984Z,70.33
2018-02-10T03:18:54.510Z,70.33
2018-02-10T03:21:22.034Z,70.35
2018-02-10T03:23:49.580Z,70.38
2018-02-10T03:26:17.099Z,70.45
2018-02-10T03:28:44.635Z,70.41
2018-02-10T03:31:12.173Z,70.42
2018-02-10T03:33:39.987Z,70.52
2018-02-10T03:36:07.548Z,70.26
2018-02-10T03:38:35.073Z,70.49
2018-02-10T03:41:02.619Z,70.56
2018-02-10T03:43:30.486Z,70.52
2018-02-10T03:45:58.230Z,70.42
2018-02-10T03:48:25.757Z,70.59
2018-02-10T03:50:53.639Z,70.43
2018-02-10T03:53:21.169Z,70.35
2018-02-10T03:55:49.106Z,70.42
2018-02-10T03:58:16.632Z,70.52
2018-02-10T04:00:44.191Z,70.38
2018-02-10T04:03:11.719Z,70.36
2018-02-10T04:05:39.242Z,70.57
2018-02-10T04:08:07.041Z,70.58
2018-02-10T04:10:34.621Z,70.35
2018-02-10T04:13:02.150Z,70.59
2018-02-10T04:15:29.717Z,70.62
2018-02-10T04:17:57.251Z,70.59
2018-02-10T04:20:24.816Z,70.69
2018-02-10T04:22:52.355Z,70.63
2018-02-10T04:25:19.884Z,70.83
2018-02-10T04:27:47.422Z,70.65
2018-02-10T04:30:14.970Z,70.75
2018-02-10T04:32:42.493Z,70.55
2018-02-10T04:35:10.014Z,70.61
2018-02-10T04:37:37.726Z,70.57
2018-02-10T04:40:05.241Z,70.56
2018-02-10T04:42:33.074Z,70.70
2018-02-10T04:45:00.589Z,70.68
2018-02-10T04:47:28.409Z,70.73
2018-02-10T04:49:56.339Z,70.70
2018-02-10T04:52:23.860Z,70.68
2018-02-10T04:54:51.406Z,70.73
2018-02-10T04:57:18.951Z,70.70
2018-02-10T04:59:46.487Z,70.63
2018-02-10T05:02:14.027Z,70.70
2018-02-10T05:04:41.549Z,70.65
2018-02-10T05:07:09.073Z,70.85
2018-02-10T05:09:36.599Z,70.77
2018-02-10T05:12:04.135Z,70.82
2018-02-10T05:14:31.687Z,70.88
2018-02-10T05:16:59.223Z,70.85
2018-02-10T05:19:26.769Z,70.65
2018-02-10T05:21:54.292Z,70.66
2018-02-10T05:24:21.807Z,70.72
2018-02-10T05:26:49.349Z,70.75
2018-02-10T05:29:16.878Z,70.56
2018-02-10T05:31:44.399Z,70.81
2018-02-10T05:34:11.929Z,70.58
2018-02-10T05:36:39.464Z,70.50
2018-02-10T05:39:06.984Z,70.47
2018-02-10T05:41:34.511Z,70.49
2018-02-10T05:44:02.052Z,70.32
2018-02-10T05:46:29.581Z,70.44
2018-02-10T05:48:57.149Z,70.43
2018-02-10T05:51:24.673Z,70.09
2018-02-10T05:53:52.185Z,70.17
2018-02-10T05:56:19.704Z,70.27
2018-02-10T05:58:47.221Z,70.06
2018-02-10T06:01:14.771Z,70.13
2018-02-10T06:03:42.299Z,69.92
2018-02-10T06:06:09.839Z,69.75
2018-02-10T06:08:37.397Z,69.69
2018-02-10T06:11:04.927Z,69.71
2018-02-10T06:13:32.501Z,69.59
2018-02-10T06:16:00.031Z,69.30
2018-02-10T06:18:27.556Z,69.41
2018-02-10T06:20:55.124Z,69.15
2018-02-10T06:23:22.639Z,69.22
2018-02-10T06:25:50.193Z,69.13
2018-02-10T06:28:17.737Z,69.24
2018-02-10T06:30:45.295Z,69.01
2018-02-10T06:33:12.819Z,68.99
2018-02-10T06:35:40.343Z,68.41
2018-02-10T06:38:07.894Z,68.41
2018-02-10T06:40:35.406Z,68.23
2018-02-10T06:43:02.963Z,67.83
2018-02-10T06:45:30.494Z,67.49
2018-02-10T06:47:58.036Z,67.28
2018-02-10T06:50:25.553Z,66.84
2018-02-10T06:52:53.147Z,66.22
2018-02-10T06:55:20.665Z,66.29
2018-02-10T06:57:48.201Z,65.91
2018-02-10T07:00:15.762Z,65.82
2018-02-10T07:02:43.283Z,65.72
2018-02-10T07:05:10.810Z,65.61
2018-02-10T07:07:38.351Z,65.35
2018-02-10T07:10:05.884Z,65.28
2018-02-10T07:12:33.439Z,65.00
2018-02-10T07:15:00.953Z,64.83
2018-02-10T07:17:28.474Z,64.78
2018-02-10T07:19:56.041Z,65.43
2018-02-10T07:22:23.566Z,65.31
2018-02-10T07:24:51.095Z,65.41
2018-02-10T07:27:18.615Z,65.06
2018-02-10T07:29:46.207Z,64.81
2018-02-10T07:32:13.763Z,68.74
2018-02-10T07:34:41.715Z,65.84
2018-02-10T07:37:09.546Z,56.95
2018-02-10T07:39:37.075Z,53.57
2018-02-10T07:42:04.604Z,51.65
2018-02-10T07:44:32.488Z,51.25
2018-02-10T07:47:00.042Z,50.55
2018-02-10T07:49:27.596Z,49.23
2018-02-10T07:51:55.136Z,47.45
2018-02-10T07:54:22.678Z,46.69
2018-02-10T07:56:53.840Z,46.38
2018-02-10T07:59:21.498Z,46.41
2018-02-10T08:01:49.995Z,46.29
2018-02-10T08:04:17.503Z,46.90
2018-02-10T08:06:52.361Z,47.42
2018-02-10T08:09:21.431Z,48.26
2018-02-10T08:11:48.952Z,51.02
2018-02-10T08:14:16.481Z,50.14
2018-02-10T08:16:44.010Z,50.76
2018-02-10T08:19:11.538Z,51.38
2018-02-10T08:21:39.050Z,51.37
2018-02-10T08:24:06.586Z,52.21
2018-02-10T08:26:34.137Z,51.75
2018-02-10T08:29:01.649Z,52.85
2018-02-10T08:31:29.258Z,52.13
2018-02-10T08:33:56.769Z,58.48
2018-02-10T08:36:24.299Z,54.16
2018-02-10T08:38:51.901Z,54.09
2018-02-10T08:41:19.423Z,53.18
2018-02-10T08:43:47.001Z,53.00
2018-02-10T08:46:14.530Z,52.52
2018-02-10T08:48:43.180Z,51.60
2018-02-10T08:51:10.756Z,51.61
2018-02-10T08:53:38.296Z,51.31
2018-02-10T08:56:05.964Z,51.01
2018-02-10T08:58:33.497Z,51.12
2018-02-10T09:01:01.054Z,52.63
2018-02-10T09:03:28.592Z,51.54
2018-02-10T09:05:56.133Z,51.15
2018-02-10T09:08:23.669Z,50.92
2018-02-10T09:10:51.472Z,50.49
2018-02-10T09:13:19.070Z,50.51
2018-02-10T09:15:46.700Z,50.21
2018-02-10T09:18:14.231Z,49.92
2018-02-10T09:20:42.091Z,49.94
2018-02-10T09:23:09.875Z,49.03
2018-02-10T09:25:37.431Z,48.63
2018-02-10T09:28:04.983Z,48.05
2018-02-10T09:30:32.553Z,48.18
2018-02-10T09:33:00.085Z,49.24
2018-02-10T09:35:27.920Z,49.63
2018-02-10T09:37:55.470Z,50.28
2018-02-10T09:40:23.091Z,49.83
2018-02-10T09:42:50.647Z,50.48
2018-02-10T09:45:18.171Z,50.54
2018-02-10T09:47:45.685Z,50.11
2018-02-10T09:50:13.225Z,50.56
2018-02-10T09:52:40.737Z,50.45
2018-02-10T09:55:08.259Z,50.20
2018-02-10T09:57:35.774Z,50.19
2018-02-10T10:00:06.801Z,49.94
2018-02-10T10:02:34.321Z,49.55
2018-02-10T10:05:01.869Z,49.13
2018-02-10T10:07:29.397Z,48.89
2018-02-10T10:09:56.909Z,48.52
2018-02-10T10:12:24.435Z,49.36
2018-02-10T10:14:51.969Z,49.23
2018-02-10T10:17:19.535Z,49.27
2018-02-10T10:19:47.089Z,49.99
2018-02-10T10:22:14.854Z,49.76
2018-02-10T10:24:42.401Z,49.87
2018-02-10T10:27:10.287Z,49.72
2018-02-10T10:29:37.816Z,49.80
2018-02-10T10:32:05.397Z,50.13
2018-02-10T10:34:32.933Z,50.21
2018-02-10T10:37:00.459Z,50.08
2018-02-10T10:39:27.973Z,49.97
2018-02-10T10:41:55.494Z,50.45
2018-02-10T10:44:23.038Z,51.07
2018-02-10T10:46:50.550Z,51.40
2018-02-10T10:49:18.070Z,51.70
2018-02-10T10:51:45.609Z,52.18
2018-02-10T10:54:13.145Z,52.55
2018-02-10T10:56:40.844Z,55.63
2018-02-10T10:59:08.363Z,53.66
2018-02-10T11:01:35.982Z,55.81
2018-02-10T11:04:03.530Z,53.33
2018-02-10T11:06:31.054Z,52.81
2018-02-10T11:08:58.629Z,53.32
2018-02-10T11:11:26.149Z,52.58
2018-02-10T11:13:53.709Z,53.99
2018-02-10T11:16:52.483Z,53.26
2018-02-10T11:19:20.474Z,52.92
2018-02-10T11:21:48.841Z,54.94
2018-02-10T11:26:57.627Z,54.01
2018-02-10T11:29:27.006Z,54.09
2018-02-10T11:31:54.546Z,53.29
2018-02-10T11:34:22.086Z,54.36
2018-02-10T11:36:49.706Z,53.61
2018-02-10T11:39:17.236Z,53.10
2018-02-10T11:41:44.795Z,52.95
2018-02-10T11:44:12.426Z,55.16
2018-02-10T11:46:39.957Z,53.54
2018-02-10T11:49:07.488Z,53.38
2018-02-10T11:51:35.079Z,52.61
2018-02-10T11:54:02.640Z,55.17
2018-02-10T11:56:30.254Z,55.41
2018-02-10T11:58:57.883Z,56.17
2018-02-10T12:01:25.441Z,54.82
2018-02-10T12:03:52.982Z,53.84
2018-02-10T12:06:21.915Z,54.80
2018-02-10T12:08:49.494Z,54.71
2018-02-10T12:11:17.014Z,53.56
2018-02-10T12:13:44.609Z,53.48
2018-02-10T12:16:12.119Z,53.04
2018-02-10T12:18:39.686Z,52.96
2018-02-10T12:21:09.879Z,53.48
2018-02-10T12:23:37.396Z,53.16
2018-02-10T12:26:05.269Z,53.70
2018-02-10T12:28:33.137Z,54.31
2018-02-10T12:31:00.711Z,57.03
2018-02-10T12:33:28.267Z,55.17
2018-02-10T12:35:55.796Z,55.87
2018-02-10T12:38:23.330Z,56.75
2018-02-10T12:40:51.056Z,55.48
2018-02-10T12:43:18.734Z,55.20
2018-02-10T12:45:46.274Z,55.88
2018-02-10T12:48:19.433Z,55.12
2018-02-10T12:50:46.945Z,55.17
2018-02-10T12:53:14.484Z,56.17
2018-02-10T12:55:42.005Z,55.56
2018-02-10T12:58:09.551Z,55.75
2018-02-10T13:00:37.116Z,55.39
2018-02-10T13:03:04.667Z,55.89
2018-02-10T13:05:32.194Z,57.99
2018-02-10T13:07:59.717Z,58.11
2018-02-10T13:10:27.253Z,57.98
2018-02-10T13:12:54.792Z,58.40
2018-02-10T13:15:22.319Z,57.76
2018-02-10T13:17:49.864Z,58.11
2018-02-10T13:20:17.414Z,58.29
2018-02-10T13:22:44.952Z,57.49
2018-02-10T13:25:12.497Z,56.59
2018-02-10T13:27:40.641Z,57.92
2018-02-10T13:30:08.297Z,57.40
2018-02-10T13:32:36.135Z,56.97
2018-02-10T13:35:03.700Z,56.99
2018-02-10T13:37:31.213Z,57.86
2018-02-10T13:39:59.200Z,56.48
2018-02-10T13:42:26.992Z,56.78
2018-02-10T13:44:54.519Z,56.43
2018-02-10T13:47:22.047Z,56.97
2018-02-10T13:49:49.585Z,57.46
2018-02-10T13:52:17.451Z,55.59
2018-02-10T13:54:45.004Z,56.07
2018-02-10T13:57:12.517Z,56.44
2018-02-10T13:59:40.045Z,56.69
2018-02-10T14:02:07.693Z,57.03
2018-02-10T14:04:36.087Z,56.93
2018-02-10T14:07:03.631Z,58.01
2018-02-10T14:09:31.176Z,57.99
2018-02-10T14:11:58.704Z,56.89
2018-02-10T14:14:26.781Z,56.75
2018-02-10T14:16:54.311Z,57.56
2018-02-10T14:19:21.852Z,57.48
2018-02-10T14:21:49.869Z,57.29
2018-02-10T14:24:17.397Z,57.38
2018-02-10T14:26:45.786Z,57.70
2018-02-10T14:29:13.597Z,58.95
2018-02-10T14:31:41.138Z,83.41
2018-02-10T14:34:08.727Z,65.84
2018-02-10T14:36:37.645Z,62.15
2018-02-10T14:39:05.204Z,62.66
2018-02-10T14:41:32.783Z,63.21
2018-02-10T14:44:00.320Z,61.69
2018-02-10T14:46:27.882Z,63.23
2018-02-10T14:48:55.409Z,62.77
2018-02-10T14:51:22.942Z,62.81
2018-02-10T14:53:51.282Z,61.13
2018-02-10T14:56:18.876Z,61.55
2018-02-10T14:58:46.424Z,61.65
2018-02-10T15:01:13.962Z,61.44
2018-02-10T15:03:42.528Z,62.69
2018-02-10T15:06:10.063Z,61.71
2018-02-10T15:08:37.640Z,62.62
2018-02-10T15:11:06.105Z,62.81
2018-02-10T15:13:33.684Z,63.09
2018-02-10T15:16:02.022Z,63.28
2018-02-10T15:18:29.581Z,63.06
2018-02-10T15:20:57.381Z,62.65
2018-02-10T15:23:24.924Z,62.88
2018-02-10T15:25:52.466Z,63.45
2018-02-10T15:28:20.023Z,63.06
2018-02-10T15:30:59.659Z,64.09
2018-02-10T15:33:39.140Z,63.67
2018-02-10T15:36:07.031Z,63.84
2018-02-10T15:38:34.717Z,63.47
2018-02-10T15:41:02.696Z,63.38
2018-02-10T15:43:30.434Z,63.47
2018-02-10T15:45:57.978Z,63.72
2018-02-10T15:48:25.598Z,63.67
2018-02-10T15:50:53.144Z,63.63
2018-02-10T15:53:20.734Z,64.25
2018-02-10T15:55:48.262Z,63.80
2018-02-10T15:58:16.197Z,63.82
2018-02-10T16:00:43.823Z,63.67
2018-02-10T16:03:12.029Z,63.65
2018-02-10T16:05:39.577Z,65.03
2018-02-10T16:08:07.565Z,64.57
2018-02-10T16:10:35.878Z,66.04
2018-02-10T16:13:03.468Z,64.43
2018-02-10T16:15:31.017Z,64.06
2018-02-10T16:17:59.143Z,64.58
2018-02-10T16:20:27.182Z,64.25
2018-02-10T16:22:54.710Z,63.82
2018-02-10T16:25:22.674Z,64.24
2018-02-10T16:27:50.211Z,64.34
2018-02-10T16:30:18.148Z,64.01
2018-02-10T16:32:45.702Z,64.66
2018-02-10T16:35:13.255Z,63.96
2018-02-10T16:37:40.807Z,63.87
2018-02-10T16:40:09.002Z,64.12
2018-02-10T16:42:37.486Z,65.00
2018-02-10T16:45:05.014Z,64.17
2018-02-10T16:47:32.549Z,64.36
2018-02-10T16:50:00.912Z,64.71
2018-02-10T16:52:28.749Z,65.76
2018-02-10T16:54:56.606Z,64.60
2018-02-10T16:57:24.164Z,65.31
2018-02-10T16:59:51.721Z,65.00
2018-02-10T17:02:19.420Z,64.69
2018-02-10T17:04:46.959Z,64.54
2018-02-10T17:07:14.493Z,64.81
2018-02-10T17:09:42.429Z,64.32
2018-02-10T17:12:09.975Z,64.52
2018-02-10T17:14:37.542Z,64.56
2018-02-10T17:17:05.211Z,64.39
2018-02-10T17:19:33.097Z,64.31
2018-02-10T17:22:00.880Z,64.68
2018-02-10T17:24:28.406Z,65.03
2018-02-10T17:26:55.965Z,64.48
2018-02-10T17:29:23.556Z,64.45
2018-02-10T17:31:51.117Z,64.57
2018-02-10T17:34:18.654Z,65.12
2018-02-10T17:36:46.445Z,64.43
2018-02-10T17:39:14.311Z,64.41
2018-02-10T17:41:42.729Z,64.54
2018-02-10T17:44:10.580Z,64.80
2018-02-10T17:46:38.754Z,64.47
2018-02-10T17:49:06.289Z,64.74
2018-02-10T17:51:34.041Z,64.40
2018-02-10T17:54:01.566Z,64.21
2018-02-10T17:56:30.063Z,64.41
2018-02-10T17:58:57.640Z,64.46
2018-02-10T18:01:25.255Z,64.46
2018-02-10T18:03:53.197Z,64.76
2018-02-10T18:06:20.731Z,64.75
2018-02-10T18:08:48.508Z,64.57
2018-02-10T18:11:16.928Z,65.20
2018-02-10T18:13:44.777Z,64.44
2018-02-10T18:16:12.436Z,64.60
2018-02-10T18:18:40.018Z,64.64
2018-02-10T18:21:07.538Z,65.14
2018-02-10T18:23:35.089Z,64.61
2018-02-10T18:26:05.252Z,64.85
2018-02-10T18:28:33.285Z,65.24
2018-02-10T18:31:00.910Z,64.80
2018-02-10T18:33:29.674Z,65.04
2018-02-10T18:35:58.986Z,65.11
2018-02-10T18:38:26.573Z,64.81
2018-02-10T18:41:07.588Z,64.84
2018-02-10T18:43:35.279Z,64.37
2018-02-10T18:46:03.186Z,64.35
2018-02-10T18:48:30.809Z,64.30
2018-02-10T18:50:58.644Z,64.41
2018-02-10T18:53:38.776Z,64.29
2018-02-10T18:59:06.332Z,64.54
2018-02-10T19:01:42.495Z,64.51
2018-02-10T19:04:10.174Z,64.31
2018-02-10T19:06:37.816Z,64.34
2018-02-10T19:09:05.642Z,64.36
2018-02-10T19:11:33.182Z,64.43
2018-02-10T19:14:01.591Z,64.49
2018-02-10T19:16:29.736Z,64.54
2018-02-10T19:18:58.132Z,64.97
2018-02-10T19:21:25.753Z,64.82
2018-02-10T19:23:53.587Z,64.41
2018-02-10T19:26:21.134Z,64.41
2018-02-10T19:28:48.926Z,64.55
2018-02-10T19:31:16.561Z,64.68
2018-02-10T19:33:44.132Z,64.61
2018-02-10T19:36:11.930Z,64.60
2018-02-10T19:38:39.545Z,64.63
2018-02-10T19:41:07.876Z,64.59
2018-02-10T19:43:35.693Z,64.72
2018-02-10T19:46:03.685Z,64.62
2018-02-10T19:48:31.983Z,64.44
2018-02-10T19:51:00.590Z,65.16
2018-02-10T19:53:28.197Z,64.75
2018-02-10T19:55:57.172Z,64.99
2018-02-10T19:58:24.936Z,64.61
2018-02-10T20:00:52.558Z,64.55
2018-02-10T20:03:21.121Z,64.66
2018-02-10T20:05:48.678Z,64.88
2018-02-10T20:08:16.229Z,65.01
2018-02-10T20:10:43.784Z,64.63
2018-02-10T20:13:11.687Z,64.69
2018-02-10T20:15:40.169Z,64.86
2018-02-10T20:18:10.686Z,64.91
2018-02-10T20:20:38.868Z,64.90
2018-02-10T20:23:06.458Z,64.93
2018-02-10T20:25:35.098Z,65.01
2018-02-10T20:30:41.930Z,65.06
2018-02-10T20:33:29.488Z,64.84
2018-02-10T20:35:59.711Z,65.01
2018-02-10T20:38:30.324Z,65.15
2018-02-10T20:40:57.849Z,65.17
2018-02-10T20:43:32.632Z,65.37
2018-02-10T20:46:13.571Z,65.19
2018-02-10T20:51:44.631Z,65.07
2018-02-10T20:54:12.477Z,88.15
2018-02-10T20:56:40.385Z,81.97
2018-02-10T20:59:08.998Z,77.08
2018-02-10T21:01:37.504Z,75.29
2018-02-10T21:04:05.097Z,74.90
2018-02-10T21:06:32.969Z,74.28
2018-02-10T21:09:00.485Z,74.05
2018-02-10T21:11:28.082Z,73.74
2018-02-10T21:13:56.540Z,73.72
2018-02-10T21:16:24.301Z,73.27
2018-02-10T21:18:53.410Z,73.26
2018-02-10T21:21:20.968Z,72.96
2018-02-10T21:23:48.529Z,73.37
2018-02-10T21:26:16.276Z,73.16
2018-02-10T21:28:43.809Z,73.14
2018-02-10T21:31:11.353Z,72.87
2018-02-10T21:33:38.893Z,72.96
2018-02-10T21:36:06.647Z,72.99
2018-02-10T21:38:34.284Z,72.97
2018-02-10T21:41:02.000Z,72.99
2018-02-10T21:43:29.597Z,72.95
2018-02-10T21:45:57.534Z,73.00
2018-02-10T21:48:27.229Z,72.98
2018-02-10T21:50:54.774Z,73.27
2018-02-10T21:53:24.557Z,73.09
2018-02-10T21:55:54.010Z,73.06
2018-02-10T21:58:21.950Z,73.09
2018-02-10T22:00:49.787Z,73.10
2018-02-10T22:03:18.958Z,72.98
2018-02-10T22:05:46.514Z,73.04
2018-02-10T22:08:14.318Z,73.02
2018-02-10T22:10:41.859Z,73.21
2018-02-10T22:13:09.519Z,73.15
2018-02-10T22:15:37.055Z,73.10
2018-02-10T22:18:04.619Z,73.19
2018-02-10T22:20:32.151Z,73.17
2018-02-10T22:22:59.717Z,73.06
2018-02-10T22:25:27.272Z,73.26
2018-02-10T22:27:54.821Z,73.15
2018-02-10T22:30:22.418Z,73.11
2018-02-10T22:32:50.314Z,73.27
2018-02-10T22:35:18.070Z,73.15
2018-02-10T22:37:45.927Z,73.34
2018-02-10T22:40:13.467Z,73.26
2018-02-10T22:42:59.525Z,73.19
2018-02-10T22:45:27.068Z,73.13
2018-02-10T22:47:54.618Z,73.22
2018-02-10T22:50:52.285Z,73.33
2018-02-10T22:53:20.162Z,73.36
2018-02-10T22:55:47.728Z,73.08
2018-02-10T22:58:15.292Z,73.39
2018-02-10T23:00:43.056Z,73.30
2018-02-10T23:03:16.741Z,73.26
2018-02-10T23:05:44.480Z,73.35
2018-02-10T23:08:12.005Z,73.13
2018-02-10T23:10:45.452Z,72.80
2018-02-10T23:13:13.062Z,73.19
2018-02-10T23:15:40.603Z,72.98
2018-02-10T23:18:08.528Z,73.30
2018-02-10T23:20:36.214Z,73.12
2018-02-10T23:23:03.850Z,73.22
2018-02-10T23:25:31.653Z,73.20
2018-02-10T23:27:59.208Z,73.03
2018-02-10T23:30:26.785Z,73.23
2018-02-10T23:32:54.326Z,73.33
2018-02-10T23:35:39.561Z,73.28
2018-02-10T23:38:07.116Z,73.33
2018-02-10T23:40:34.912Z,73.25
2018-02-10T23:43:02.463Z,73.52
2018-02-10T23:45:30.012Z,73.43
2018-02-10T23:47:57.592Z,73.35
2018-02-10T23:50:25.134Z,73.38
2018-02-10T23:52:53.058Z,73.41
2018-02-10T23:55:20.687Z,73.33
2018-02-10T23:57:48.556Z,73.45
